sensor_id;sensor_type;location;lat;lon;timestamp;P1;durP1;ratioP1;P2;durP2;ratioP2
81314;SDS011;75773;52.534;5.686;2024-03-22T00:02:18;27.40;;;10.95;;
81314;SDS011;75773;52.534;5.686;2024-03-22T00:04:44;29.45;;;10.90;;
81314;SDS011;75773;52.534;5.686;2024-03-22T00:07:11;24.15;;;11.65;;
81314;SDS011;75773;52.534;5.686;2024-03-22T00:09:38;25.05;;;11.68;;
81314;SDS011;75773;52.534;5.686;2024-03-22T00:12:07;21.45;;;10.90;;
81314;SDS011;75773;52.534;5.686;2024-03-22T00:14:34;21.45;;;10.30;;
81314;SDS011;75773;52.534;5.686;2024-03-22T00:17:01;23.80;;;11.05;;
81314;SDS011;75773;52.534;5.686;2024-03-22T00:19:28;24.95;;;9.88;;
81314;SDS011;75773;52.534;5.686;2024-03-22T00:21:55;22.52;;;9.75;;
81314;SDS011;75773;52.534;5.686;2024-03-22T00:24:21;25.50;;;10.60;;
81314;SDS011;75773;52.534;5.686;2024-03-22T00:26:48;22.88;;;10.98;;
81314;SDS011;75773;52.534;5.686;2024-03-22T00:29:20;26.08;;;12.65;;
81314;SDS011;75773;52.534;5.686;2024-03-22T00:31:47;22.48;;;11.50;;
81314;SDS011;75773;52.534;5.686;2024-03-22T00:34:13;21.17;;;11.90;;
81314;SDS011;75773;52.534;5.686;2024-03-22T00:36:40;19.70;;;9.63;;
81314;SDS011;75773;52.534;5.686;2024-03-22T00:39:08;21.98;;;10.50;;
81314;SDS011;75773;52.534;5.686;2024-03-22T00:41:35;26.70;;;11.23;;
81314;SDS011;75773;52.534;5.686;2024-03-22T00:44:02;21.95;;;10.55;;
81314;SDS011;75773;52.534;5.686;2024-03-22T00:46:32;23.88;;;11.23;;
81314;SDS011;75773;52.534;5.686;2024-03-22T00:48:58;24.83;;;10.70;;
81314;SDS011;75773;52.534;5.686;2024-03-22T00:51:25;24.30;;;11.25;;
81314;SDS011;75773;52.534;5.686;2024-03-22T00:53:52;26.55;;;12.70;;
81314;SDS011;75773;52.534;5.686;2024-03-22T00:56:19;24.05;;;10.48;;
81314;SDS011;75773;52.534;5.686;2024-03-22T00:58:48;33.88;;;13.80;;
81314;SDS011;75773;52.534;5.686;2024-03-22T01:01:15;24.70;;;10.77;;
81314;SDS011;75773;52.534;5.686;2024-03-22T01:03:54;27.27;;;10.45;;
81314;SDS011;75773;52.534;5.686;2024-03-22T01:06:20;24.27;;;10.43;;
81314;SDS011;75773;52.534;5.686;2024-03-22T01:08:48;30.58;;;13.10;;
81314;SDS011;75773;52.534;5.686;2024-03-22T01:11:15;23.75;;;10.75;;
81314;SDS011;75773;52.534;5.686;2024-03-22T01:13:41;26.52;;;11.65;;
81314;SDS011;75773;52.534;5.686;2024-03-22T01:16:08;24.23;;;11.57;;
81314;SDS011;75773;52.534;5.686;2024-03-22T01:18:35;24.70;;;11.00;;
81314;SDS011;75773;52.534;5.686;2024-03-22T01:21:07;29.15;;;12.07;;
81314;SDS011;75773;52.534;5.686;2024-03-22T01:23:43;29.00;;;12.40;;
81314;SDS011;75773;52.534;5.686;2024-03-22T01:26:10;23.65;;;11.43;;
81314;SDS011;75773;52.534;5.686;2024-03-22T01:28:42;32.88;;;12.95;;
81314;SDS011;75773;52.534;5.686;2024-03-22T01:31:09;25.98;;;12.70;;
81314;SDS011;75773;52.534;5.686;2024-03-22T01:33:36;25.23;;;11.45;;
81314;SDS011;75773;52.534;5.686;2024-03-22T01:36:03;27.80;;;11.07;;
81314;SDS011;75773;52.534;5.686;2024-03-22T01:38:33;27.65;;;12.18;;
81314;SDS011;75773;52.534;5.686;2024-03-22T01:40:59;25.73;;;12.70;;
81314;SDS011;75773;52.534;5.686;2024-03-22T01:43:26;26.92;;;12.88;;
81314;SDS011;75773;52.534;5.686;2024-03-22T01:45:53;27.38;;;11.88;;
81314;SDS011;75773;52.534;5.686;2024-03-22T01:48:20;25.48;;;11.13;;
81314;SDS011;75773;52.534;5.686;2024-03-22T01:50:47;22.95;;;11.90;;
81314;SDS011;75773;52.534;5.686;2024-03-22T01:53:14;30.00;;;11.45;;
81314;SDS011;75773;52.534;5.686;2024-03-22T01:55:43;25.13;;;12.80;;
81314;SDS011;75773;52.534;5.686;2024-03-22T01:58:11;28.17;;;12.25;;
81314;SDS011;75773;52.534;5.686;2024-03-22T02:00:41;28.02;;;12.05;;
81314;SDS011;75773;52.534;5.686;2024-03-22T02:03:08;29.27;;;12.32;;
81314;SDS011;75773;52.534;5.686;2024-03-22T02:05:35;25.98;;;11.07;;
81314;SDS011;75773;52.534;5.686;2024-03-22T02:08:02;27.27;;;12.50;;
81314;SDS011;75773;52.534;5.686;2024-03-22T02:10:29;26.10;;;12.35;;
81314;SDS011;75773;52.534;5.686;2024-03-22T02:12:59;34.42;;;14.73;;
81314;SDS011;75773;52.534;5.686;2024-03-22T02:15:29;28.63;;;12.15;;
81314;SDS011;75773;52.534;5.686;2024-03-22T02:17:55;22.90;;;11.68;;
81314;SDS011;75773;52.534;5.686;2024-03-22T02:20:35;23.65;;;11.77;;
81314;SDS011;75773;52.534;5.686;2024-03-22T02:23:02;28.98;;;12.60;;
81314;SDS011;75773;52.534;5.686;2024-03-22T02:25:32;27.33;;;11.55;;
81314;SDS011;75773;52.534;5.686;2024-03-22T02:27:58;28.77;;;12.80;;
81314;SDS011;75773;52.534;5.686;2024-03-22T02:30:25;30.15;;;12.05;;
81314;SDS011;75773;52.534;5.686;2024-03-22T02:32:55;25.17;;;10.57;;
81314;SDS011;75773;52.534;5.686;2024-03-22T02:35:25;27.55;;;11.82;;
81314;SDS011;75773;52.534;5.686;2024-03-22T02:37:51;32.45;;;12.10;;
81314;SDS011;75773;52.534;5.686;2024-03-22T02:40:18;24.83;;;10.93;;
81314;SDS011;75773;52.534;5.686;2024-03-22T02:42:47;23.15;;;9.32;;
81314;SDS011;75773;52.534;5.686;2024-03-22T02:45:14;27.70;;;10.68;;
81314;SDS011;75773;52.534;5.686;2024-03-22T02:47:46;30.67;;;10.75;;
81314;SDS011;75773;52.534;5.686;2024-03-22T02:50:13;28.55;;;11.65;;
81314;SDS011;75773;52.534;5.686;2024-03-22T02:52:40;29.05;;;11.57;;
81314;SDS011;75773;52.534;5.686;2024-03-22T02:55:07;37.95;;;12.50;;
81314;SDS011;75773;52.534;5.686;2024-03-22T02:57:34;32.60;;;11.27;;
81314;SDS011;75773;52.534;5.686;2024-03-22T03:00:05;36.88;;;13.00;;
81314;SDS011;75773;52.534;5.686;2024-03-22T03:02:38;33.15;;;12.32;;
81314;SDS011;75773;52.534;5.686;2024-03-22T03:05:05;30.95;;;11.50;;
81314;SDS011;75773;52.534;5.686;2024-03-22T03:07:32;31.25;;;11.55;;
81314;SDS011;75773;52.534;5.686;2024-03-22T03:10:00;28.33;;;11.40;;
81314;SDS011;75773;52.534;5.686;2024-03-22T03:12:26;30.60;;;13.13;;
81314;SDS011;75773;52.534;5.686;2024-03-22T03:14:53;34.38;;;11.73;;
81314;SDS011;75773;52.534;5.686;2024-03-22T03:17:22;28.70;;;11.13;;
81314;SDS011;75773;52.534;5.686;2024-03-22T03:19:49;37.35;;;11.48;;
81314;SDS011;75773;52.534;5.686;2024-03-22T03:22:16;23.70;;;11.38;;
81314;SDS011;75773;52.534;5.686;2024-03-22T03:24:43;31.85;;;10.93;;
81314;SDS011;75773;52.534;5.686;2024-03-22T03:27:10;32.17;;;12.98;;
81314;SDS011;75773;52.534;5.686;2024-03-22T03:29:37;29.33;;;12.23;;
81314;SDS011;75773;52.534;5.686;2024-03-22T03:32:04;35.15;;;12.85;;
81314;SDS011;75773;52.534;5.686;2024-03-22T03:34:36;30.20;;;12.55;;
81314;SDS011;75773;52.534;5.686;2024-03-22T03:37:03;30.25;;;11.73;;
81314;SDS011;75773;52.534;5.686;2024-03-22T03:39:30;31.10;;;11.50;;
81314;SDS011;75773;52.534;5.686;2024-03-22T03:41:56;26.10;;;10.43;;
81314;SDS011;75773;52.534;5.686;2024-03-22T03:44:23;30.63;;;12.27;;
81314;SDS011;75773;52.534;5.686;2024-03-22T03:46:50;30.95;;;11.80;;
81314;SDS011;75773;52.534;5.686;2024-03-22T03:49:17;31.83;;;11.82;;
81314;SDS011;75773;52.534;5.686;2024-03-22T03:51:46;34.97;;;11.75;;
81314;SDS011;75773;52.534;5.686;2024-03-22T03:54:13;39.65;;;13.57;;
81314;SDS011;75773;52.534;5.686;2024-03-22T03:56:39;34.83;;;13.68;;
81314;SDS011;75773;52.534;5.686;2024-03-22T03:59:06;34.13;;;12.02;;
81314;SDS011;75773;52.534;5.686;2024-03-22T04:01:33;31.52;;;13.25;;
81314;SDS011;75773;52.534;5.686;2024-03-22T04:03:59;32.13;;;13.35;;
81314;SDS011;75773;52.534;5.686;2024-03-22T04:06:28;31.98;;;11.23;;
81314;SDS011;75773;52.534;5.686;2024-03-22T04:08:57;32.25;;;12.48;;
81314;SDS011;75773;52.534;5.686;2024-03-22T04:11:24;30.48;;;10.43;;
81314;SDS011;75773;52.534;5.686;2024-03-22T04:13:54;30.00;;;10.85;;
81314;SDS011;75773;52.534;5.686;2024-03-22T04:16:20;35.00;;;12.85;;
81314;SDS011;75773;52.534;5.686;2024-03-22T04:18:47;31.85;;;11.90;;
81314;SDS011;75773;52.534;5.686;2024-03-22T04:21:14;27.05;;;11.15;;
81314;SDS011;75773;52.534;5.686;2024-03-22T04:24:02;30.83;;;12.30;;
81314;SDS011;75773;52.534;5.686;2024-03-22T04:26:32;33.50;;;11.05;;
81314;SDS011;75773;52.534;5.686;2024-03-22T04:28:58;28.63;;;11.55;;
81314;SDS011;75773;52.534;5.686;2024-03-22T04:31:25;31.85;;;11.38;;
81314;SDS011;75773;52.534;5.686;2024-03-22T04:33:54;25.63;;;11.75;;
81314;SDS011;75773;52.534;5.686;2024-03-22T04:36:24;25.42;;;10.48;;
81314;SDS011;75773;52.534;5.686;2024-03-22T04:38:56;25.92;;;10.38;;
81314;SDS011;75773;52.534;5.686;2024-03-22T04:41:25;26.23;;;11.10;;
81314;SDS011;75773;52.534;5.686;2024-03-22T04:43:54;24.52;;;11.18;;
81314;SDS011;75773;52.534;5.686;2024-03-22T04:46:21;25.52;;;10.20;;
81314;SDS011;75773;52.534;5.686;2024-03-22T04:48:48;24.17;;;9.68;;
81314;SDS011;75773;52.534;5.686;2024-03-22T04:51:15;24.23;;;11.07;;
81314;SDS011;75773;52.534;5.686;2024-03-22T04:53:41;28.55;;;12.00;;
81314;SDS011;75773;52.534;5.686;2024-03-22T04:56:08;20.15;;;9.70;;
81314;SDS011;75773;52.534;5.686;2024-03-22T04:58:37;30.92;;;11.68;;
81314;SDS011;75773;52.534;5.686;2024-03-22T05:01:04;27.95;;;10.75;;
81314;SDS011;75773;52.534;5.686;2024-03-22T05:06:04;24.08;;;10.05;;
81314;SDS011;75773;52.534;5.686;2024-03-22T05:08:30;25.38;;;10.32;;
81314;SDS011;75773;52.534;5.686;2024-03-22T05:10:57;25.42;;;9.43;;
81314;SDS011;75773;52.534;5.686;2024-03-22T05:13:24;26.23;;;9.65;;
81314;SDS011;75773;52.534;5.686;2024-03-22T05:15:53;26.90;;;8.77;;
81314;SDS011;75773;52.534;5.686;2024-03-22T05:18:20;24.33;;;9.00;;
81314;SDS011;75773;52.534;5.686;2024-03-22T05:20:47;21.60;;;8.77;;
81314;SDS011;75773;52.534;5.686;2024-03-22T05:23:13;25.40;;;10.93;;
81314;SDS011;75773;52.534;5.686;2024-03-22T05:25:40;21.83;;;8.23;;
81314;SDS011;75773;52.534;5.686;2024-03-22T05:28:07;17.38;;;7.85;;
81314;SDS011;75773;52.534;5.686;2024-03-22T05:30:34;16.95;;;9.15;;
81314;SDS011;75773;52.534;5.686;2024-03-22T05:33:03;24.42;;;8.57;;
81314;SDS011;75773;52.534;5.686;2024-03-22T05:35:30;24.05;;;9.52;;
81314;SDS011;75773;52.534;5.686;2024-03-22T05:37:57;24.98;;;9.48;;
81314;SDS011;75773;52.534;5.686;2024-03-22T05:40:23;25.60;;;9.05;;
81314;SDS011;75773;52.534;5.686;2024-03-22T05:42:50;22.40;;;9.52;;
81314;SDS011;75773;52.534;5.686;2024-03-22T05:45:17;16.98;;;8.13;;
81314;SDS011;75773;52.534;5.686;2024-03-22T05:47:44;22.02;;;8.13;;
81314;SDS011;75773;52.534;5.686;2024-03-22T05:50:13;24.48;;;8.55;;
81314;SDS011;75773;52.534;5.686;2024-03-22T05:52:40;18.90;;;8.48;;
81314;SDS011;75773;52.534;5.686;2024-03-22T05:55:06;18.50;;;8.00;;
81314;SDS011;75773;52.534;5.686;2024-03-22T05:57:33;25.95;;;8.23;;
81314;SDS011;75773;52.534;5.686;2024-03-22T06:00:00;17.52;;;8.15;;
81314;SDS011;75773;52.534;5.686;2024-03-22T06:02:26;20.67;;;8.40;;
81314;SDS011;75773;52.534;5.686;2024-03-22T06:04:53;15.93;;;7.28;;
81314;SDS011;75773;52.534;5.686;2024-03-22T06:07:25;18.50;;;7.03;;
81314;SDS011;75773;52.534;5.686;2024-03-22T06:09:52;13.60;;;6.57;;
81314;SDS011;75773;52.534;5.686;2024-03-22T06:12:19;17.45;;;8.18;;
81314;SDS011;75773;52.534;5.686;2024-03-22T06:14:45;19.17;;;8.35;;
81314;SDS011;75773;52.534;5.686;2024-03-22T06:17:12;19.13;;;7.25;;
81314;SDS011;75773;52.534;5.686;2024-03-22T06:19:41;18.42;;;6.65;;
81314;SDS011;75773;52.534;5.686;2024-03-22T06:22:08;20.80;;;7.57;;
81314;SDS011;75773;52.534;5.686;2024-03-22T06:24:37;19.23;;;6.22;;
81314;SDS011;75773;52.534;5.686;2024-03-22T06:27:04;14.43;;;6.10;;
81314;SDS011;75773;52.534;5.686;2024-03-22T06:29:31;17.00;;;7.07;;
81314;SDS011;75773;52.534;5.686;2024-03-22T06:31:58;13.38;;;6.85;;
81314;SDS011;75773;52.534;5.686;2024-03-22T06:34:25;16.00;;;6.05;;
81314;SDS011;75773;52.534;5.686;2024-03-22T06:36:51;12.98;;;5.63;;
81314;SDS011;75773;52.534;5.686;2024-03-22T06:39:18;17.10;;;7.53;;
81314;SDS011;75773;52.534;5.686;2024-03-22T06:41:47;14.88;;;6.07;;
81314;SDS011;75773;52.534;5.686;2024-03-22T06:44:14;20.33;;;6.55;;
81314;SDS011;75773;52.534;5.686;2024-03-22T06:46:40;13.80;;;5.45;;
81314;SDS011;75773;52.534;5.686;2024-03-22T06:49:07;14.10;;;6.05;;
81314;SDS011;75773;52.534;5.686;2024-03-22T06:51:34;19.70;;;5.82;;
81314;SDS011;75773;52.534;5.686;2024-03-22T06:54:01;14.48;;;6.30;;
81314;SDS011;75773;52.534;5.686;2024-03-22T06:56:27;20.13;;;4.70;;
81314;SDS011;75773;52.534;5.686;2024-03-22T06:58:56;15.13;;;5.13;;
81314;SDS011;75773;52.534;5.686;2024-03-22T07:01:23;20.10;;;6.53;;
81314;SDS011;75773;52.534;5.686;2024-03-22T07:03:50;14.63;;;5.95;;
81314;SDS011;75773;52.534;5.686;2024-03-22T07:06:17;11.60;;;5.53;;
81314;SDS011;75773;52.534;5.686;2024-03-22T07:08:43;11.77;;;5.18;;
81314;SDS011;75773;52.534;5.686;2024-03-22T07:11:10;11.02;;;5.32;;
81314;SDS011;75773;52.534;5.686;2024-03-22T07:13:37;18.08;;;5.38;;
81314;SDS011;75773;52.534;5.686;2024-03-22T07:16:06;13.88;;;5.22;;
81314;SDS011;75773;52.534;5.686;2024-03-22T07:18:33;13.93;;;4.82;;
81314;SDS011;75773;52.534;5.686;2024-03-22T07:21:00;14.15;;;5.00;;
81314;SDS011;75773;52.534;5.686;2024-03-22T07:23:27;12.77;;;5.03;;
81314;SDS011;75773;52.534;5.686;2024-03-22T07:25:54;15.35;;;5.38;;
81314;SDS011;75773;52.534;5.686;2024-03-22T07:28:23;11.82;;;4.90;;
81314;SDS011;75773;52.534;5.686;2024-03-22T07:30:56;7.75;;;3.85;;
81314;SDS011;75773;52.534;5.686;2024-03-22T07:33:29;14.02;;;4.88;;
81314;SDS011;75773;52.534;5.686;2024-03-22T07:36:00;14.60;;;5.72;;
81314;SDS011;75773;52.534;5.686;2024-03-22T07:38:28;12.45;;;3.65;;
81314;SDS011;75773;52.534;5.686;2024-03-22T07:40:54;18.65;;;4.28;;
81314;SDS011;75773;52.534;5.686;2024-03-22T07:43:21;11.00;;;5.30;;
81314;SDS011;75773;52.534;5.686;2024-03-22T07:45:48;11.48;;;4.55;;
81314;SDS011;75773;52.534;5.686;2024-03-22T07:48:15;17.55;;;4.32;;
81314;SDS011;75773;52.534;5.686;2024-03-22T07:50:45;11.60;;;4.22;;
81314;SDS011;75773;52.534;5.686;2024-03-22T07:53:12;9.05;;;3.97;;
81314;SDS011;75773;52.534;5.686;2024-03-22T07:55:39;8.82;;;3.35;;
81314;SDS011;75773;52.534;5.686;2024-03-22T07:58:06;10.35;;;4.72;;
81314;SDS011;75773;52.534;5.686;2024-03-22T08:00:34;7.50;;;4.07;;
81314;SDS011;75773;52.534;5.686;2024-03-22T08:03:01;10.45;;;3.75;;
81314;SDS011;75773;52.534;5.686;2024-03-22T08:05:30;8.32;;;3.30;;
81314;SDS011;75773;52.534;5.686;2024-03-22T08:08:02;11.15;;;3.72;;
81314;SDS011;75773;52.534;5.686;2024-03-22T08:10:28;8.48;;;3.83;;
81314;SDS011;75773;52.534;5.686;2024-03-22T08:13:01;8.00;;;4.38;;
81314;SDS011;75773;52.534;5.686;2024-03-22T08:15:27;12.73;;;3.70;;
81314;SDS011;75773;52.534;5.686;2024-03-22T08:17:56;10.27;;;2.78;;
81314;SDS011;75773;52.534;5.686;2024-03-22T08:20:23;14.23;;;4.68;;
81314;SDS011;75773;52.534;5.686;2024-03-22T08:22:56;12.98;;;4.32;;
81314;SDS011;75773;52.534;5.686;2024-03-22T08:25:25;12.60;;;4.15;;
81314;SDS011;75773;52.534;5.686;2024-03-22T08:27:52;17.08;;;3.95;;
81314;SDS011;75773;52.534;5.686;2024-03-22T08:30:20;12.20;;;3.95;;
81314;SDS011;75773;52.534;5.686;2024-03-22T08:32:46;11.25;;;4.93;;
81314;SDS011;75773;52.534;5.686;2024-03-22T08:35:14;15.00;;;5.25;;
81314;SDS011;75773;52.534;5.686;2024-03-22T08:37:41;10.15;;;4.50;;
81314;SDS011;75773;52.534;5.686;2024-03-22T08:40:08;14.70;;;4.93;;
81314;SDS011;75773;52.534;5.686;2024-03-22T08:42:38;9.65;;;4.25;;
81314;SDS011;75773;52.534;5.686;2024-03-22T08:45:06;13.20;;;5.30;;
81314;SDS011;75773;52.534;5.686;2024-03-22T08:47:33;14.32;;;4.45;;
81314;SDS011;75773;52.534;5.686;2024-03-22T08:50:00;10.00;;;3.67;;
81314;SDS011;75773;52.534;5.686;2024-03-22T08:52:27;12.20;;;5.75;;
81314;SDS011;75773;52.534;5.686;2024-03-22T08:54:56;10.20;;;3.97;;
81314;SDS011;75773;52.534;5.686;2024-03-22T08:57:23;9.20;;;3.92;;
81314;SDS011;75773;52.534;5.686;2024-03-22T08:59:53;9.02;;;4.43;;
81314;SDS011;75773;52.534;5.686;2024-03-22T09:02:22;11.85;;;5.15;;
81314;SDS011;75773;52.534;5.686;2024-03-22T09:04:49;29.90;;;5.88;;
81314;SDS011;75773;52.534;5.686;2024-03-22T09:07:16;12.73;;;5.00;;
81314;SDS011;75773;52.534;5.686;2024-03-22T09:09:42;10.90;;;4.65;;
81314;SDS011;75773;52.534;5.686;2024-03-22T09:12:09;13.13;;;5.35;;
81314;SDS011;75773;52.534;5.686;2024-03-22T09:14:36;7.20;;;4.30;;
81314;SDS011;75773;52.534;5.686;2024-03-22T09:17:06;15.57;;;5.93;;
81314;SDS011;75773;52.534;5.686;2024-03-22T09:19:35;12.20;;;5.13;;
81314;SDS011;75773;52.534;5.686;2024-03-22T09:22:02;12.63;;;5.38;;
81314;SDS011;75773;52.534;5.686;2024-03-22T09:24:29;11.18;;;4.95;;
81314;SDS011;75773;52.534;5.686;2024-03-22T09:26:56;9.82;;;5.28;;
81314;SDS011;75773;52.534;5.686;2024-03-22T09:29:24;13.00;;;4.85;;
81314;SDS011;75773;52.534;5.686;2024-03-22T09:31:50;12.60;;;4.85;;
81314;SDS011;75773;52.534;5.686;2024-03-22T09:34:20;9.73;;;4.03;;
81314;SDS011;75773;52.534;5.686;2024-03-22T09:36:46;12.15;;;4.18;;
81314;SDS011;75773;52.534;5.686;2024-03-22T09:39:13;11.85;;;4.90;;
81314;SDS011;75773;52.534;5.686;2024-03-22T09:41:41;9.85;;;4.95;;
81314;SDS011;75773;52.534;5.686;2024-03-22T09:44:10;13.00;;;4.80;;
81314;SDS011;75773;52.534;5.686;2024-03-22T09:46:40;12.82;;;5.65;;
81314;SDS011;75773;52.534;5.686;2024-03-22T09:49:09;12.07;;;4.60;;
81314;SDS011;75773;52.534;5.686;2024-03-22T09:51:39;13.23;;;4.72;;
81314;SDS011;75773;52.534;5.686;2024-03-22T09:54:07;13.10;;;5.78;;
81314;SDS011;75773;52.534;5.686;2024-03-22T09:56:37;9.60;;;4.53;;
81314;SDS011;75773;52.534;5.686;2024-03-22T09:59:05;11.18;;;4.55;;
81314;SDS011;75773;52.534;5.686;2024-03-22T10:01:32;12.13;;;4.13;;
81314;SDS011;75773;52.534;5.686;2024-03-22T10:04:02;7.93;;;3.88;;
81314;SDS011;75773;52.534;5.686;2024-03-22T10:06:29;11.38;;;4.70;;
81314;SDS011;75773;52.534;5.686;2024-03-22T10:09:00;9.60;;;3.65;;
81314;SDS011;75773;52.534;5.686;2024-03-22T10:11:33;8.10;;;3.63;;
81314;SDS011;75773;52.534;5.686;2024-03-22T10:14:00;8.98;;;3.22;;
81314;SDS011;75773;52.534;5.686;2024-03-22T10:16:32;5.57;;;3.50;;
81314;SDS011;75773;52.534;5.686;2024-03-22T10:19:00;7.68;;;3.25;;
81314;SDS011;75773;52.534;5.686;2024-03-22T10:21:36;7.93;;;3.80;;
81314;SDS011;75773;52.534;5.686;2024-03-22T10:24:06;9.18;;;4.50;;
81314;SDS011;75773;52.534;5.686;2024-03-22T10:26:36;6.97;;;3.35;;
81314;SDS011;75773;52.534;5.686;2024-03-22T10:29:05;6.78;;;3.60;;
81314;SDS011;75773;52.534;5.686;2024-03-22T10:31:32;9.93;;;3.55;;
81314;SDS011;75773;52.534;5.686;2024-03-22T10:34:01;4.07;;;2.72;;
81314;SDS011;75773;52.534;5.686;2024-03-22T10:36:30;8.45;;;3.53;;
81314;SDS011;75773;52.534;5.686;2024-03-22T10:38:59;8.48;;;3.60;;
81314;SDS011;75773;52.534;5.686;2024-03-22T10:41:30;6.10;;;3.83;;
81314;SDS011;75773;52.534;5.686;2024-03-22T10:43:57;4.68;;;2.83;;
81314;SDS011;75773;52.534;5.686;2024-03-22T10:46:25;7.32;;;2.95;;
81314;SDS011;75773;52.534;5.686;2024-03-22T10:48:55;5.03;;;2.90;;
81314;SDS011;75773;52.534;5.686;2024-03-22T10:51:23;5.57;;;3.08;;
81314;SDS011;75773;52.534;5.686;2024-03-22T10:56:19;7.82;;;3.80;;
81314;SDS011;75773;52.534;5.686;2024-03-22T10:58:51;4.88;;;2.83;;
81314;SDS011;75773;52.534;5.686;2024-03-22T11:01:24;4.60;;;2.75;;
81314;SDS011;75773;52.534;5.686;2024-03-22T11:03:51;5.13;;;2.63;;
81314;SDS011;75773;52.534;5.686;2024-03-22T11:06:30;4.43;;;3.22;;
81314;SDS011;75773;52.534;5.686;2024-03-22T11:11:25;7.13;;;2.50;;
81314;SDS011;75773;52.534;5.686;2024-03-22T11:14:03;5.78;;;3.08;;
81314;SDS011;75773;52.534;5.686;2024-03-22T11:16:32;9.15;;;3.13;;
81314;SDS011;75773;52.534;5.686;2024-03-22T11:19:00;2.50;;;1.98;;
81314;SDS011;75773;52.534;5.686;2024-03-22T11:21:27;7.43;;;3.28;;
81314;SDS011;75773;52.534;5.686;2024-03-22T11:23:58;5.35;;;2.90;;
81314;SDS011;75773;52.534;5.686;2024-03-22T11:28:55;4.13;;;3.10;;
81314;SDS011;75773;52.534;5.686;2024-03-22T11:31:24;8.13;;;2.72;;
81314;SDS011;75773;52.534;5.686;2024-03-22T11:33:51;5.03;;;2.20;;
81314;SDS011;75773;52.534;5.686;2024-03-22T11:36:18;4.13;;;2.35;;
81314;SDS011;75773;52.534;5.686;2024-03-22T11:38:45;4.10;;;2.45;;
81314;SDS011;75773;52.534;5.686;2024-03-22T11:41:12;3.78;;;2.45;;
81314;SDS011;75773;52.534;5.686;2024-03-22T11:43:39;3.97;;;2.47;;
81314;SDS011;75773;52.534;5.686;2024-03-22T11:46:06;3.40;;;1.85;;
81314;SDS011;75773;52.534;5.686;2024-03-22T11:48:35;5.00;;;2.40;;
81314;SDS011;75773;52.534;5.686;2024-03-22T11:51:05;3.10;;;2.38;;
81314;SDS011;75773;52.534;5.686;2024-03-22T11:53:33;9.05;;;2.83;;
81314;SDS011;75773;52.534;5.686;2024-03-22T11:56:09;4.10;;;2.55;;
81314;SDS011;75773;52.534;5.686;2024-03-22T11:58:35;4.22;;;2.38;;
81314;SDS011;75773;52.534;5.686;2024-03-22T12:01:03;8.13;;;3.17;;
81314;SDS011;75773;52.534;5.686;2024-03-22T12:03:38;3.65;;;2.85;;
81314;SDS011;75773;52.534;5.686;2024-03-22T12:06:05;5.57;;;3.78;;
81314;SDS011;75773;52.534;5.686;2024-03-22T12:08:31;6.20;;;2.50;;
81314;SDS011;75773;52.534;5.686;2024-03-22T12:10:58;5.20;;;2.80;;
81314;SDS011;75773;52.534;5.686;2024-03-22T12:13:27;6.68;;;3.20;;
81314;SDS011;75773;52.534;5.686;2024-03-22T12:15:53;9.52;;;4.88;;
81314;SDS011;75773;52.534;5.686;2024-03-22T12:18:20;7.40;;;4.82;;
81314;SDS011;75773;52.534;5.686;2024-03-22T12:20:50;6.55;;;3.47;;
81314;SDS011;75773;52.534;5.686;2024-03-22T12:23:20;10.35;;;4.80;;
81314;SDS011;75773;52.534;5.686;2024-03-22T12:25:46;7.20;;;4.45;;
81314;SDS011;75773;52.534;5.686;2024-03-22T12:28:13;12.45;;;4.22;;
81314;SDS011;75773;52.534;5.686;2024-03-22T12:30:40;10.40;;;4.00;;
81314;SDS011;75773;52.534;5.686;2024-03-22T12:33:10;6.15;;;3.35;;
81314;SDS011;75773;52.534;5.686;2024-03-22T12:35:36;13.77;;;4.55;;
81314;SDS011;75773;52.534;5.686;2024-03-22T12:38:08;9.15;;;4.82;;
81314;SDS011;75773;52.534;5.686;2024-03-22T12:40:35;10.10;;;4.50;;
81314;SDS011;75773;52.534;5.686;2024-03-22T12:43:05;10.02;;;5.00;;
81314;SDS011;75773;52.534;5.686;2024-03-22T12:45:43;10.60;;;3.85;;
81314;SDS011;75773;52.534;5.686;2024-03-22T12:48:09;6.88;;;3.90;;
81314;SDS011;75773;52.534;5.686;2024-03-22T12:50:36;12.38;;;4.85;;
81314;SDS011;75773;52.534;5.686;2024-03-22T12:53:04;13.57;;;4.68;;
81314;SDS011;75773;52.534;5.686;2024-03-22T12:55:36;9.88;;;4.45;;
81314;SDS011;75773;52.534;5.686;2024-03-22T12:58:05;6.78;;;3.72;;
81314;SDS011;75773;52.534;5.686;2024-03-22T13:03:01;9.18;;;3.95;;
81314;SDS011;75773;52.534;5.686;2024-03-22T13:05:28;10.82;;;4.47;;
81314;SDS011;75773;52.534;5.686;2024-03-22T13:07:55;11.75;;;4.40;;
81314;SDS011;75773;52.534;5.686;2024-03-22T13:10:22;11.82;;;4.95;;
81314;SDS011;75773;52.534;5.686;2024-03-22T13:12:54;9.18;;;4.45;;
81314;SDS011;75773;52.534;5.686;2024-03-22T13:15:30;15.20;;;4.65;;
81314;SDS011;75773;52.534;5.686;2024-03-22T13:17:57;10.18;;;4.30;;
81314;SDS011;75773;52.534;5.686;2024-03-22T13:20:24;10.00;;;4.45;;
81314;SDS011;75773;52.534;5.686;2024-03-22T13:22:50;9.07;;;4.28;;
81314;SDS011;75773;52.534;5.686;2024-03-22T13:25:17;12.38;;;4.55;;
81314;SDS011;75773;52.534;5.686;2024-03-22T13:27:44;10.85;;;3.80;;
81314;SDS011;75773;52.534;5.686;2024-03-22T13:30:13;7.25;;;3.85;;
81314;SDS011;75773;52.534;5.686;2024-03-22T13:32:40;12.00;;;4.03;;
81314;SDS011;75773;52.534;5.686;2024-03-22T13:35:07;8.55;;;3.78;;
81314;SDS011;75773;52.534;5.686;2024-03-22T13:37:34;7.40;;;2.90;;
81314;SDS011;75773;52.534;5.686;2024-03-22T13:40:06;7.97;;;3.72;;
81314;SDS011;75773;52.534;5.686;2024-03-22T13:42:39;6.85;;;4.05;;
81314;SDS011;75773;52.534;5.686;2024-03-22T13:45:06;10.00;;;3.78;;
81314;SDS011;75773;52.534;5.686;2024-03-22T13:47:36;14.18;;;4.05;;
81314;SDS011;75773;52.534;5.686;2024-03-22T13:50:03;8.35;;;4.45;;
81314;SDS011;75773;52.534;5.686;2024-03-22T13:52:31;7.32;;;3.10;;
81314;SDS011;75773;52.534;5.686;2024-03-22T13:54:58;9.13;;;3.60;;
81314;SDS011;75773;52.534;5.686;2024-03-22T13:57:24;11.48;;;3.88;;
81314;SDS011;75773;52.534;5.686;2024-03-22T13:59:51;8.00;;;3.75;;
81314;SDS011;75773;52.534;5.686;2024-03-22T14:02:18;7.88;;;2.70;;
81314;SDS011;75773;52.534;5.686;2024-03-22T14:04:47;6.55;;;2.50;;
81314;SDS011;75773;52.534;5.686;2024-03-22T14:07:14;4.95;;;2.13;;
81314;SDS011;75773;52.534;5.686;2024-03-22T14:09:41;7.82;;;2.35;;
81314;SDS011;75773;52.534;5.686;2024-03-22T14:12:07;5.15;;;1.90;;
81314;SDS011;75773;52.534;5.686;2024-03-22T14:14:34;3.67;;;2.05;;
81314;SDS011;75773;52.534;5.686;2024-03-22T14:17:01;6.78;;;1.67;;
81314;SDS011;75773;52.534;5.686;2024-03-22T14:19:28;5.13;;;1.77;;
81314;SDS011;75773;52.534;5.686;2024-03-22T14:22:00;5.95;;;1.80;;
81314;SDS011;75773;52.534;5.686;2024-03-22T14:24:30;6.15;;;1.85;;
81314;SDS011;75773;52.534;5.686;2024-03-22T14:27:02;5.30;;;1.55;;
81314;SDS011;75773;52.534;5.686;2024-03-22T14:29:29;3.35;;;1.58;;
81314;SDS011;75773;52.534;5.686;2024-03-22T14:31:59;9.70;;;1.92;;
81314;SDS011;75773;52.534;5.686;2024-03-22T14:34:29;5.05;;;1.30;;
81314;SDS011;75773;52.534;5.686;2024-03-22T14:36:58;8.32;;;1.77;;
81314;SDS011;75773;52.534;5.686;2024-03-22T14:39:27;5.07;;;1.45;;
81314;SDS011;75773;52.534;5.686;2024-03-22T14:41:54;5.20;;;1.60;;
81314;SDS011;75773;52.534;5.686;2024-03-22T14:44:20;5.13;;;1.27;;
81314;SDS011;75773;52.534;5.686;2024-03-22T14:46:47;2.08;;;1.25;;
81314;SDS011;75773;52.534;5.686;2024-03-22T14:49:14;9.43;;;1.45;;
81314;SDS011;75773;52.534;5.686;2024-03-22T14:51:41;5.05;;;1.65;;